Pittsfield, Massachusetts
Current Conditions -  °F | °C
As of 10:10 PM on Sunday 21 Dec 2014 (Local Time) from KPSF Reporting Station
Light Snow Light Snow  
Wind Chill: 29°   Ceiling: 2100
Heat Index: 29°   Visibility: 2mi
Dew Point: 27°   Wind: 0mph
Humidity: 92%   Direction: NA
Pressure: 30.29"   Gusts: NA
Location:  42.45°N, 73.25°W
Report Text: KPSF 220310Z AUTO 00000KT 2SM -SN BR OVC021 M02/M03 A3029 RMK AO2 P0000 T10171028
Loading
Personal Weather Stations






























Interactive Weather Map New forecast layout! Learn more

10-Day Weather Forecast

Advertisements
Track Severe Weather on mobile